createdAt,value
2023-11-19T04:32:10.215Z,57.13
2023-11-19T04:34:38.616Z,57.33
2023-11-19T04:39:35.887Z,56.46
2023-11-19T04:42:03.663Z,56.87
2023-11-19T04:44:30.986Z,57.11
2023-11-19T04:46:58.724Z,57.59
2023-11-19T04:49:28.573Z,57.07
2023-11-19T04:51:55.884Z,57.70
2023-11-19T04:54:22.905Z,56.84
2023-11-19T04:56:50.124Z,57.35
2023-11-19T04:59:17.346Z,57.36
2023-11-19T05:01:48.655Z,57.08
2023-11-19T05:04:16.513Z,57.04
2023-11-19T05:06:43.704Z,57.60
2023-11-19T05:09:10.844Z,57.25
2023-11-19T05:11:51.393Z,57.57
2023-11-19T05:14:21.262Z,58.53
2023-11-19T05:16:48.427Z,59.88
2023-11-19T05:19:15.779Z,60.89
2023-11-19T05:21:44.734Z,62.20
2023-11-19T05:24:13.242Z,62.84
2023-11-19T05:26:40.363Z,62.66
2023-11-19T05:29:07.501Z,62.09
2023-11-19T05:31:36.966Z,61.84
2023-11-19T05:34:05.511Z,61.79
2023-11-19T05:36:32.773Z,62.16
2023-11-19T05:38:59.872Z,62.93
2023-11-19T05:41:26.960Z,62.39
2023-11-19T05:43:54.007Z,62.60
2023-11-19T05:46:21.724Z,62.08
2023-11-19T05:48:49.555Z,63.50
2023-11-19T05:51:17.612Z,65.04
2023-11-19T05:53:47.042Z,65.02
2023-11-19T05:56:14.823Z,63.68
2023-11-19T05:58:41.994Z,65.53
2023-11-19T06:01:09.794Z,65.63
2023-11-19T06:03:38.198Z,64.62
2023-11-19T06:06:06.466Z,63.69
2023-11-19T06:08:34.029Z,64.05
2023-11-19T06:11:02.823Z,63.57
2023-11-19T06:13:32.669Z,65.26
2023-11-19T06:16:00.150Z,64.49
2023-11-19T06:18:27.603Z,64.52
2023-11-19T06:20:54.799Z,63.93
2023-11-19T06:23:21.896Z,64.81
2023-11-19T06:25:49.001Z,64.17
2023-11-19T06:28:16.367Z,63.80
2023-11-19T06:30:44.386Z,63.46
2023-11-19T06:33:15.669Z,62.48
2023-11-19T06:35:42.737Z,64.09
2023-11-19T06:38:09.829Z,65.41
2023-11-19T06:40:36.988Z,69.54
2023-11-19T06:43:05.479Z,65.82
2023-11-19T06:45:33.182Z,64.51
2023-11-19T06:48:04.514Z,65.99
2023-11-19T06:50:32.336Z,65.70
2023-11-19T06:52:59.771Z,65.30
2023-11-19T06:55:27.755Z,64.30
2023-11-19T06:57:54.904Z,66.78
2023-11-19T07:00:22.129Z,65.21
2023-11-19T07:02:49.575Z,66.72
2023-11-19T07:05:16.860Z,66.19
2023-11-19T07:07:44.010Z,66.14
2023-11-19T07:10:11.250Z,65.54
2023-11-19T07:12:38.529Z,67.68
2023-11-19T07:15:06.607Z,65.34
2023-11-19T07:17:33.785Z,64.94
2023-11-19T07:20:01.366Z,64.41
2023-11-19T07:22:30.923Z,67.08
2023-11-19T07:24:58.249Z,64.50
2023-11-19T07:27:25.683Z,65.14
2023-11-19T07:29:52.949Z,67.31
2023-11-19T07:32:20.180Z,67.75
2023-11-19T07:34:47.275Z,68.44
2023-11-19T07:37:14.392Z,68.23
2023-11-19T07:39:42.664Z,69.51
2023-11-19T07:42:10.876Z,67.01
2023-11-19T07:44:38.270Z,66.16
2023-11-19T07:47:05.669Z,64.78
2023-11-19T07:49:32.825Z,68.13
2023-11-19T07:52:00.215Z,67.50
2023-11-19T07:54:27.724Z,71.83
2023-11-19T07:56:54.905Z,69.65
2023-11-19T07:59:22.374Z,69.93
2023-11-19T08:01:49.596Z,67.81
2023-11-19T08:04:16.930Z,66.22
2023-11-19T08:06:44.019Z,65.68
2023-11-19T08:09:15.155Z,67.27
2023-11-19T08:11:42.961Z,68.28
2023-11-19T08:14:10.431Z,66.98
2023-11-19T08:16:39.057Z,67.49
2023-11-19T08:19:06.263Z,65.61
2023-11-19T08:21:33.573Z,68.53
2023-11-19T08:24:00.671Z,67.28
2023-11-19T08:26:27.835Z,67.60
2023-11-19T08:28:55.103Z,67.36
2023-11-19T08:31:22.734Z,69.28
2023-11-19T08:33:50.113Z,68.35
2023-11-19T08:36:18.371Z,65.52
2023-11-19T08:38:45.783Z,65.58
2023-11-19T08:41:13.133Z,65.86
2023-11-19T08:43:40.432Z,68.21
2023-11-19T08:46:12.070Z,67.48
2023-11-19T08:48:39.727Z,66.41
2023-11-19T08:51:07.026Z,68.15
2023-11-19T08:53:34.289Z,67.56
2023-11-19T08:56:01.833Z,69.12
2023-11-19T08:58:28.923Z,69.75
2023-11-19T09:00:56.213Z,67.90
2023-11-19T09:03:23.552Z,70.15
2023-11-19T09:05:50.727Z,68.92
2023-11-19T09:08:17.892Z,68.27
2023-11-19T09:10:44.927Z,69.80
2023-11-19T09:13:11.996Z,68.02
2023-11-19T09:15:39.257Z,68.47
2023-11-19T09:18:06.484Z,67.71
2023-11-19T09:20:39.319Z,70.83
2023-11-19T09:23:07.573Z,69.88
2023-11-19T09:28:05.143Z,68.24
2023-11-19T09:30:35.464Z,68.09
2023-11-19T09:33:03.119Z,66.89
2023-11-19T09:35:30.356Z,66.21
2023-11-19T09:37:57.640Z,66.97
2023-11-19T09:40:24.753Z,67.12
2023-11-19T09:42:51.860Z,65.13
2023-11-19T09:45:21.944Z,64.89
2023-11-19T09:47:49.230Z,64.84
2023-11-19T09:50:19.983Z,67.23
2023-11-19T09:52:50.017Z,69.61
2023-11-19T09:55:17.206Z,68.75
2023-11-19T09:57:45.257Z,67.85
2023-11-19T10:00:14.599Z,67.11
2023-11-19T10:02:41.937Z,67.30
2023-11-19T10:05:09.317Z,66.45
2023-11-19T10:07:36.442Z,66.57
2023-11-19T10:10:05.324Z,65.89
2023-11-19T10:12:32.370Z,66.50
2023-11-19T10:14:59.738Z,66.85
2023-11-19T10:17:36.115Z,67.49
2023-11-19T10:20:04.417Z,68.47
2023-11-19T10:22:31.679Z,68.58
2023-11-19T10:24:58.772Z,66.89
2023-11-19T10:27:27.103Z,65.58
2023-11-19T10:29:54.417Z,64.91
2023-11-19T10:32:25.792Z,64.78
2023-11-19T10:35:08.625Z,66.21
2023-11-19T10:37:38.820Z,65.56
2023-11-19T10:40:06.878Z,65.72
2023-11-19T10:42:34.026Z,66.90
2023-11-19T10:45:01.031Z,66.38
2023-11-19T10:49:59.952Z,67.94
2023-11-19T10:52:29.001Z,68.25
2023-11-19T10:54:56.126Z,67.27
2023-11-19T10:57:24.257Z,66.42
2023-11-19T10:59:53.784Z,65.85
2023-11-19T11:02:23.871Z,68.73
2023-11-19T11:04:50.890Z,66.88
2023-11-19T11:07:17.904Z,67.33
2023-11-19T11:09:45.148Z,66.73
2023-11-19T11:12:12.271Z,65.07
2023-11-19T11:14:41.540Z,66.65
2023-11-19T11:17:09.499Z,66.19
2023-11-19T11:19:37.197Z,65.50
2023-11-19T11:22:04.620Z,63.81
2023-11-19T11:25:07.573Z,63.79
2023-11-19T11:27:41.298Z,62.42
2023-11-19T11:30:26.463Z,66.37
2023-11-19T11:33:07.155Z,64.93
2023-11-19T11:36:03.164Z,65.88
2023-11-19T11:38:30.216Z,65.07
2023-11-19T11:41:16.500Z,66.67
2023-11-19T11:43:50.864Z,67.48
2023-11-19T11:46:33.130Z,69.08
2023-11-19T11:49:03.819Z,67.28
2023-11-19T11:51:46.749Z,67.12
2023-11-19T11:54:20.172Z,66.66
2023-11-19T11:59:46.289Z,66.02
2023-11-19T12:02:15.711Z,65.56
2023-11-19T12:04:43.269Z,64.34
2023-11-19T12:07:13.920Z,64.21
2023-11-19T12:09:47.069Z,62.88
2023-11-19T12:12:24.927Z,60.68
2023-11-19T12:15:07.962Z,61.61
2023-11-19T12:17:35.031Z,60.99
2023-11-19T12:20:02.901Z,61.15
2023-11-19T12:22:29.963Z,60.95
2023-11-19T12:24:57.502Z,60.50
2023-11-19T12:27:24.611Z,59.33
2023-11-19T12:29:51.853Z,60.02
2023-11-19T12:32:19.033Z,60.42
2023-11-19T12:34:46.392Z,60.75
2023-11-19T12:37:13.430Z,61.98
2023-11-19T12:39:41.552Z,60.67
2023-11-19T12:42:08.659Z,59.68
2023-11-19T12:44:35.772Z,61.71
2023-11-19T12:47:06.087Z,61.10
2023-11-19T12:49:34.225Z,60.15
2023-11-19T12:52:01.459Z,61.04
2023-11-19T12:54:35.998Z,61.28
2023-11-19T12:57:03.890Z,60.69
2023-11-19T12:59:31.474Z,60.06
2023-11-19T13:02:01.679Z,60.54
2023-11-19T13:04:29.645Z,60.89
2023-11-19T13:09:28.851Z,60.66
2023-11-19T13:11:57.329Z,61.41
2023-11-19T13:14:24.649Z,60.50
2023-11-19T13:16:51.805Z,61.74
2023-11-19T13:19:20.354Z,60.12
2023-11-19T13:21:50.574Z,60.66
2023-11-19T13:24:17.767Z,60.62
2023-11-19T13:26:44.841Z,60.18
2023-11-19T13:29:12.132Z,60.67
2023-11-19T13:31:39.712Z,62.91
2023-11-19T13:34:08.735Z,64.05
2023-11-19T13:36:36.054Z,64.06
2023-11-19T13:39:03.454Z,62.30
2023-11-19T13:41:30.632Z,60.46
2023-11-19T13:43:57.752Z,59.55
2023-11-19T13:46:24.955Z,62.60
2023-11-19T13:48:52.014Z,61.15
2023-11-19T13:51:19.109Z,61.14
2023-11-19T13:56:16.170Z,60.99
2023-11-19T13:58:43.264Z,62.21
2023-11-19T14:01:10.471Z,59.81
2023-11-19T14:03:37.755Z,60.29
2023-11-19T14:06:05.336Z,59.44
2023-11-19T14:08:32.514Z,58.56
2023-11-19T14:10:59.620Z,59.23
2023-11-19T14:13:26.727Z,58.38
2023-11-19T14:15:53.974Z,58.45
2023-11-19T14:18:21.099Z,57.03
2023-11-19T14:20:48.302Z,56.34
2023-11-19T14:23:15.387Z,57.61
2023-11-19T14:25:42.494Z,62.22
2023-11-19T14:28:09.619Z,59.81
2023-11-19T14:30:36.816Z,58.75
2023-11-19T14:33:05.210Z,58.59
2023-11-19T14:35:34.189Z,58.86
2023-11-19T14:38:01.557Z,59.61
2023-11-19T14:42:58.797Z,59.35
2023-11-19T14:45:25.916Z,59.52
2023-11-19T14:47:54.072Z,58.22
2023-11-19T14:50:21.232Z,58.50
2023-11-19T14:52:48.348Z,58.73
2023-11-19T14:55:15.516Z,57.87
2023-11-19T14:57:47.024Z,56.76
2023-11-19T15:00:16.995Z,56.66
2023-11-19T15:02:44.157Z,56.51
2023-11-19T15:05:11.395Z,55.45
2023-11-19T15:07:39.022Z,56.38
2023-11-19T15:10:11.022Z,54.79
2023-11-19T15:12:40.974Z,54.94
2023-11-19T15:15:15.059Z,55.40
2023-11-19T15:17:42.405Z,56.48
2023-11-19T15:20:10.083Z,56.05
2023-11-19T15:22:37.193Z,56.38
2023-11-19T15:25:04.579Z,55.97
2023-11-19T15:27:31.721Z,56.75
2023-11-19T15:29:59.700Z,56.83
2023-11-19T15:32:26.951Z,56.72
2023-11-19T15:34:54.128Z,57.43
2023-11-19T15:37:21.538Z,56.68
2023-11-19T15:39:48.951Z,58.22
2023-11-19T15:42:16.244Z,57.15
2023-11-19T15:44:44.336Z,58.20
2023-11-19T15:47:14.239Z,59.26
2023-11-19T15:49:41.541Z,58.31
2023-11-19T15:52:09.309Z,56.93
2023-11-19T15:54:36.756Z,58.50
2023-11-19T15:57:04.228Z,58.22
2023-11-19T15:59:32.601Z,56.97
2023-11-19T16:02:00.024Z,57.23
2023-11-19T16:04:27.264Z,57.02
2023-11-19T16:06:54.425Z,56.46
2023-11-19T16:09:23.501Z,57.30
2023-11-19T16:11:55.992Z,58.04
2023-11-19T16:14:25.606Z,56.03
2023-11-19T16:16:54.212Z,55.75
2023-11-19T16:19:21.519Z,56.93
2023-11-19T16:21:48.843Z,56.78
2023-11-19T16:24:16.475Z,56.35
2023-11-19T16:26:43.747Z,56.45
2023-11-19T16:29:11.760Z,56.30
2023-11-19T16:31:39.947Z,56.35
2023-11-19T16:34:07.173Z,56.68
2023-11-19T16:36:35.919Z,56.47
2023-11-19T16:41:39.923Z,56.05
2023-11-19T16:44:10.668Z,57.58
2023-11-19T16:46:38.504Z,57.24
2023-11-19T16:49:06.406Z,61.10
2023-11-19T16:51:33.799Z,61.73
2023-11-19T16:54:03.147Z,62.89
2023-11-19T16:56:34.340Z,64.49
2023-11-19T16:59:02.474Z,63.15
2023-11-19T17:01:30.114Z,62.49
2023-11-19T17:03:59.489Z,62.72
2023-11-19T17:06:27.241Z,61.58
2023-11-19T17:08:54.439Z,62.59
2023-11-19T17:11:22.359Z,64.31
2023-11-19T17:13:49.557Z,65.01
2023-11-19T17:16:17.292Z,64.44
2023-11-19T17:18:44.607Z,62.86
2023-11-19T17:21:11.909Z,63.62
2023-11-19T17:23:40.486Z,62.58
2023-11-19T17:26:07.849Z,64.05
2023-11-19T17:28:37.106Z,66.16
2023-11-19T17:31:04.592Z,63.73
2023-11-19T17:33:31.689Z,63.65
2023-11-19T17:35:59.027Z,66.05
2023-11-19T17:38:28.368Z,64.15
2023-11-19T17:40:58.439Z,66.13
2023-11-19T17:43:26.295Z,64.70
2023-11-19T17:45:58.150Z,64.38
2023-11-19T17:48:25.501Z,65.76
2023-11-19T17:50:56.534Z,65.95
2023-11-19T17:53:23.961Z,64.90
2023-11-19T17:55:51.088Z,63.67
2023-11-19T17:58:18.383Z,62.75
2023-11-19T18:00:45.511Z,64.65
2023-11-19T18:03:12.889Z,63.42
2023-11-19T18:05:43.348Z,63.24
2023-11-19T18:08:13.326Z,62.53
2023-11-19T18:10:40.447Z,62.98
2023-11-19T18:13:11.923Z,62.54
2023-11-19T18:15:40.046Z,64.38
2023-11-19T18:18:07.213Z,64.47
2023-11-19T18:20:34.405Z,63.04
2023-11-19T18:23:01.969Z,62.84
2023-11-19T18:25:29.259Z,64.02
2023-11-19T18:27:56.411Z,62.24
2023-11-19T18:30:24.901Z,61.56
2023-11-19T18:32:52.204Z,61.62
2023-11-19T18:35:25.147Z,62.06
2023-11-19T18:37:53.019Z,60.93
2023-11-19T18:40:22.540Z,60.36
2023-11-19T18:42:52.912Z,60.13
2023-11-19T18:45:23.295Z,59.89
2023-11-19T18:47:54.012Z,58.54
2023-11-19T18:50:22.325Z,57.58
2023-11-19T18:52:50.106Z,57.17
2023-11-19T18:55:17.238Z,58.56
2023-11-19T18:57:45.258Z,59.00
2023-11-19T19:00:12.735Z,59.12
2023-11-19T19:02:40.257Z,63.00
2023-11-19T19:05:07.934Z,63.39
2023-11-19T19:07:35.283Z,62.61
2023-11-19T19:10:03.633Z,61.10
2023-11-19T19:12:32.219Z,60.73
2023-11-19T19:17:31.451Z,59.59
2023-11-19T19:20:00.453Z,59.06
2023-11-19T19:22:28.927Z,59.29
2023-11-19T19:24:56.910Z,60.33
2023-11-19T19:27:24.154Z,59.37
2023-11-19T19:29:51.164Z,62.46
2023-11-19T19:32:18.552Z,61.79
2023-11-19T19:34:45.601Z,62.17
2023-11-19T19:37:12.767Z,61.09
2023-11-19T19:39:40.136Z,58.71
2023-11-19T19:42:09.641Z,61.16
2023-11-19T19:44:37.346Z,59.67
2023-11-19T19:47:04.777Z,59.15
2023-11-19T19:49:31.887Z,58.80
2023-11-19T19:51:59.189Z,59.91
2023-11-19T19:54:26.190Z,59.18
2023-11-19T19:56:53.981Z,60.17
2023-11-19T19:59:22.247Z,60.02
2023-11-19T20:01:53.056Z,60.47
2023-11-19T20:04:20.531Z,60.30
2023-11-19T20:06:49.315Z,59.42
2023-11-19T20:09:17.029Z,58.49
2023-11-19T20:11:48.211Z,57.46
2023-11-19T20:14:16.921Z,56.42
2023-11-19T20:16:44.090Z,58.53
2023-11-19T20:19:11.906Z,59.60
2023-11-19T20:21:39.121Z,60.39
2023-11-19T20:24:07.012Z,59.76
2023-11-19T20:26:35.735Z,59.44
2023-11-19T20:31:40.986Z,56.87
2023-11-19T20:34:08.981Z,57.03
2023-11-19T20:36:37.839Z,58.05
2023-11-19T20:39:05.280Z,58.57
2023-11-19T20:41:32.483Z,58.02
2023-11-19T20:43:59.723Z,56.55
2023-11-19T20:46:27.353Z,58.18
2023-11-19T20:48:54.766Z,58.06
2023-11-19T20:51:28.210Z,57.32
2023-11-19T20:53:59.934Z,56.46
2023-11-19T20:56:27.017Z,57.07
2023-11-19T20:58:55.113Z,59.11
2023-11-19T21:01:22.732Z,60.07
2023-11-19T21:03:49.872Z,63.09
2023-11-19T21:06:17.774Z,65.06
2023-11-19T21:08:44.836Z,61.11
2023-11-19T21:11:11.994Z,61.47
2023-11-19T21:13:39.488Z,61.84
2023-11-19T21:16:08.696Z,61.15
2023-11-19T21:18:36.908Z,61.19
2023-11-19T21:21:05.309Z,60.01
2023-11-19T21:23:32.705Z,62.70
2023-11-19T21:26:00.017Z,61.93
2023-11-19T21:28:31.160Z,64.99
2023-11-19T21:31:01.211Z,64.28
2023-11-19T21:33:28.869Z,68.22
2023-11-19T21:35:56.728Z,66.96
2023-11-19T21:38:23.811Z,64.10
2023-11-19T21:40:51.390Z,65.70
2023-11-19T21:43:21.807Z,65.59
2023-11-19T21:45:48.977Z,67.25
2023-11-19T21:48:16.121Z,64.12
2023-11-19T21:50:43.506Z,64.32
2023-11-19T21:53:10.665Z,65.22
2023-11-19T21:55:37.721Z,63.30
2023-11-19T21:58:05.425Z,64.31
2023-11-19T22:00:32.588Z,64.35
2023-11-19T22:02:59.982Z,65.60
2023-11-19T22:05:27.164Z,67.20
2023-11-19T22:07:54.373Z,66.03
2023-11-19T22:10:21.801Z,67.07
2023-11-19T22:12:48.982Z,69.39
2023-11-19T22:15:16.114Z,68.51
2023-11-19T22:17:43.239Z,69.72
2023-11-19T22:22:42.298Z,70.79
2023-11-19T22:25:11.260Z,71.21
2023-11-19T22:27:38.581Z,70.08
2023-11-19T22:30:06.394Z,69.67
2023-11-19T22:32:35.102Z,69.53
2023-11-19T22:35:02.391Z,66.83
2023-11-19T22:37:29.991Z,68.71
2023-11-19T22:39:57.458Z,70.30
2023-11-19T22:42:24.802Z,68.78
2023-11-19T22:44:51.947Z,69.48
2023-11-19T22:47:19.045Z,70.11
2023-11-19T22:49:46.118Z,70.97
2023-11-19T22:52:13.593Z,72.58
2023-11-19T22:54:40.877Z,72.50
2023-11-19T22:57:07.996Z,70.22
2023-11-19T22:59:35.147Z,67.84
